sensor_id;sensor_type;location;lat;lon;timestamp;P1;durP1;ratioP1;P2;durP2;ratioP2
26106;SDS011;13866;50.748;12.630;2022-12-11T00:01:23;32.47;;;21.43;;
26106;SDS011;13866;50.748;12.630;2022-12-11T00:03:49;27.17;;;19.27;;
26106;SDS011;13866;50.748;12.630;2022-12-11T00:06:15;27.13;;;20.53;;
26106;SDS011;13866;50.748;12.630;2022-12-11T00:08:43;28.58;;;22.15;;
26106;SDS011;13866;50.748;12.630;2022-12-11T00:11:14;30.57;;;21.83;;
26106;SDS011;13866;50.748;12.630;2022-12-11T00:13:40;33.25;;;22.92;;
26106;SDS011;13866;50.748;12.630;2022-12-11T00:16:06;35.60;;;23.73;;
26106;SDS011;13866;50.748;12.630;2022-12-11T00:18:32;22.45;;;20.05;;
26106;SDS011;13866;50.748;12.630;2022-12-11T00:21:01;25.80;;;18.23;;
26106;SDS011;13866;50.748;12.630;2022-12-11T00:23:32;29.70;;;22.05;;
26106;SDS011;13866;50.748;12.630;2022-12-11T00:25:59;22.10;;;17.95;;
26106;SDS011;13866;50.748;12.630;2022-12-11T00:28:24;26.67;;;20.40;;
26106;SDS011;13866;50.748;12.630;2022-12-11T00:30:50;27.57;;;20.40;;
26106;SDS011;13866;50.748;12.630;2022-12-11T00:33:16;30.73;;;20.23;;
26106;SDS011;13866;50.748;12.630;2022-12-11T00:35:45;31.90;;;22.53;;
26106;SDS011;13866;50.748;12.630;2022-12-11T00:38:18;29.77;;;21.67;;
26106;SDS011;13866;50.748;12.630;2022-12-11T00:40:45;26.83;;;20.85;;
26106;SDS011;13866;50.748;12.630;2022-12-11T00:43:11;24.50;;;20.75;;
26106;SDS011;13866;50.748;12.630;2022-12-11T00:45:38;31.30;;;20.60;;
26106;SDS011;13866;50.748;12.630;2022-12-11T00:48:09;26.27;;;20.13;;
26106;SDS011;13866;50.748;12.630;2022-12-11T00:50:36;25.77;;;20.83;;
26106;SDS011;13866;50.748;12.630;2022-12-11T00:53:03;24.73;;;19.85;;
26106;SDS011;13866;50.748;12.630;2022-12-11T00:55:29;27.45;;;20.83;;
26106;SDS011;13866;50.748;12.630;2022-12-11T00:57:55;21.38;;;18.10;;
26106;SDS011;13866;50.748;12.630;2022-12-11T01:00:22;24.63;;;19.90;;
26106;SDS011;13866;50.748;12.630;2022-12-11T01:02:48;27.83;;;21.33;;
26106;SDS011;13866;50.748;12.630;2022-12-11T01:05:14;28.02;;;21.65;;
26106;SDS011;13866;50.748;12.630;2022-12-11T01:07:40;28.67;;;22.13;;
26106;SDS011;13866;50.748;12.630;2022-12-11T01:10:06;27.30;;;21.10;;
26106;SDS011;13866;50.748;12.630;2022-12-11T01:13:00;28.65;;;21.45;;
26106;SDS011;13866;50.748;12.630;2022-12-11T01:15:29;29.45;;;21.02;;
26106;SDS011;13866;50.748;12.630;2022-12-11T01:17:56;27.08;;;21.80;;
26106;SDS011;13866;50.748;12.630;2022-12-11T01:20:23;28.97;;;22.70;;
26106;SDS011;13866;50.748;12.630;2022-12-11T01:22:53;34.60;;;22.73;;
26106;SDS011;13866;50.748;12.630;2022-12-11T01:25:19;26.75;;;22.00;;
26106;SDS011;13866;50.748;12.630;2022-12-11T01:27:45;34.87;;;24.57;;
26106;SDS011;13866;50.748;12.630;2022-12-11T01:30:11;29.20;;;21.80;;
26106;SDS011;13866;50.748;12.630;2022-12-11T01:32:38;22.35;;;19.95;;
26106;SDS011;13866;50.748;12.630;2022-12-11T01:35:04;31.30;;;19.00;;
26106;SDS011;13866;50.748;12.630;2022-12-11T01:37:31;23.50;;;19.50;;
26106;SDS011;13866;50.748;12.630;2022-12-11T01:39:58;24.92;;;20.25;;
26106;SDS011;13866;50.748;12.630;2022-12-11T01:42:24;24.52;;;19.50;;
26106;SDS011;13866;50.748;12.630;2022-12-11T01:47:17;25.10;;;19.60;;
26106;SDS011;13866;50.748;12.630;2022-12-11T01:49:42;25.33;;;19.40;;
26106;SDS011;13866;50.748;12.630;2022-12-11T01:52:11;25.37;;;19.87;;
26106;SDS011;13866;50.748;12.630;2022-12-11T01:54:42;22.63;;;18.77;;
26106;SDS011;13866;50.748;12.630;2022-12-11T01:57:08;24.40;;;20.60;;
26106;SDS011;13866;50.748;12.630;2022-12-11T01:59:36;26.65;;;20.08;;
26106;SDS011;13866;50.748;12.630;2022-12-11T02:02:06;24.98;;;19.70;;
26106;SDS011;13866;50.748;12.630;2022-12-11T02:04:38;27.17;;;20.48;;
26106;SDS011;13866;50.748;12.630;2022-12-11T02:07:05;23.42;;;19.92;;
26106;SDS011;13866;50.748;12.630;2022-12-11T02:09:32;23.83;;;19.00;;
26106;SDS011;13866;50.748;12.630;2022-12-11T02:12:06;25.90;;;20.73;;
26106;SDS011;13866;50.748;12.630;2022-12-11T02:17:31;29.73;;;21.33;;
26106;SDS011;13866;50.748;12.630;2022-12-11T02:28:24;25.58;;;19.45;;
26106;SDS011;13866;50.748;12.630;2022-12-11T02:31:04;27.33;;;22.50;;
26106;SDS011;13866;50.748;12.630;2022-12-11T02:33:40;27.35;;;21.48;;
26106;SDS011;13866;50.748;12.630;2022-12-11T02:36:15;25.85;;;21.20;;
26106;SDS011;13866;50.748;12.630;2022-12-11T02:38:42;24.85;;;19.75;;
26106;SDS011;13866;50.748;12.630;2022-12-11T02:41:14;25.92;;;21.20;;
26106;SDS011;13866;50.748;12.630;2022-12-11T02:43:41;28.02;;;19.85;;
26106;SDS011;13866;50.748;12.630;2022-12-11T02:46:08;26.02;;;20.42;;
26106;SDS011;13866;50.748;12.630;2022-12-11T02:48:35;25.83;;;20.65;;
26106;SDS011;13866;50.748;12.630;2022-12-11T02:51:02;24.95;;;20.17;;
26106;SDS011;13866;50.748;12.630;2022-12-11T02:53:30;26.35;;;20.27;;
26106;SDS011;13866;50.748;12.630;2022-12-11T02:56:33;25.63;;;20.95;;
26106;SDS011;13866;50.748;12.630;2022-12-11T02:58:56;29.60;;;20.85;;
26106;SDS011;13866;50.748;12.630;2022-12-11T03:01:24;25.27;;;20.58;;
26106;SDS011;13866;50.748;12.630;2022-12-11T03:03:50;27.73;;;21.35;;
26106;SDS011;13866;50.748;12.630;2022-12-11T03:06:18;26.83;;;21.35;;
26106;SDS011;13866;50.748;12.630;2022-12-11T03:08:48;40.67;;;22.08;;
26106;SDS011;13866;50.748;12.630;2022-12-11T03:11:15;26.52;;;21.33;;
26106;SDS011;13866;50.748;12.630;2022-12-11T03:13:41;26.60;;;21.80;;
26106;SDS011;13866;50.748;12.630;2022-12-11T03:16:14;30.38;;;21.98;;
26106;SDS011;13866;50.748;12.630;2022-12-11T03:19:01;22.48;;;19.90;;
26106;SDS011;13866;50.748;12.630;2022-12-11T03:26:57;28.20;;;21.15;;
26106;SDS011;13866;50.748;12.630;2022-12-11T03:29:36;30.63;;;21.73;;
26106;SDS011;13866;50.748;12.630;2022-12-11T03:32:11;25.67;;;21.17;;
26106;SDS011;13866;50.748;12.630;2022-12-11T03:34:41;29.75;;;20.52;;
26106;SDS011;13866;50.748;12.630;2022-12-11T03:37:10;31.17;;;24.73;;
26106;SDS011;13866;50.748;12.630;2022-12-11T03:39:39;28.45;;;21.75;;
26106;SDS011;13866;50.748;12.630;2022-12-11T03:42:09;28.05;;;22.13;;
26106;SDS011;13866;50.748;12.630;2022-12-11T03:44:36;33.22;;;24.25;;
26106;SDS011;13866;50.748;12.630;2022-12-11T03:47:04;30.80;;;21.60;;
26106;SDS011;13866;50.748;12.630;2022-12-11T03:49:41;29.75;;;23.90;;
26106;SDS011;13866;50.748;12.630;2022-12-11T03:52:09;29.48;;;22.48;;
26106;SDS011;13866;50.748;12.630;2022-12-11T03:54:36;37.72;;;24.58;;
26106;SDS011;13866;50.748;12.630;2022-12-11T03:57:03;32.35;;;23.05;;
26106;SDS011;13866;50.748;12.630;2022-12-11T03:59:31;33.38;;;24.80;;
26106;SDS011;13866;50.748;12.630;2022-12-11T04:01:57;30.10;;;23.47;;
26106;SDS011;13866;50.748;12.630;2022-12-11T04:04:23;33.90;;;25.67;;
26106;SDS011;13866;50.748;12.630;2022-12-11T04:06:49;33.17;;;24.83;;
26106;SDS011;13866;50.748;12.630;2022-12-11T04:09:14;31.37;;;24.73;;
26106;SDS011;13866;50.748;12.630;2022-12-11T04:11:40;30.80;;;23.00;;
26106;SDS011;13866;50.748;12.630;2022-12-11T04:14:11;34.22;;;24.08;;
26106;SDS011;13866;50.748;12.630;2022-12-11T04:16:57;39.97;;;25.80;;
26106;SDS011;13866;50.748;12.630;2022-12-11T04:19:23;34.88;;;26.55;;
26106;SDS011;13866;50.748;12.630;2022-12-11T04:22:12;33.47;;;24.40;;
26106;SDS011;13866;50.748;12.630;2022-12-11T04:24:58;34.58;;;24.27;;
26106;SDS011;13866;50.748;12.630;2022-12-11T04:27:25;28.08;;;22.15;;
26106;SDS011;13866;50.748;12.630;2022-12-11T04:30:11;28.80;;;20.80;;
26106;SDS011;13866;50.748;12.630;2022-12-11T04:32:38;30.13;;;22.58;;
26106;SDS011;13866;50.748;12.630;2022-12-11T04:35:05;28.70;;;21.60;;
26106;SDS011;13866;50.748;12.630;2022-12-11T04:37:32;35.35;;;22.52;;
26106;SDS011;13866;50.748;12.630;2022-12-11T04:39:57;29.93;;;22.70;;
26106;SDS011;13866;50.748;12.630;2022-12-11T04:42:23;32.80;;;23.20;;
26106;SDS011;13866;50.748;12.630;2022-12-11T04:44:48;35.77;;;22.40;;
26106;SDS011;13866;50.748;12.630;2022-12-11T04:47:14;27.03;;;21.37;;
26106;SDS011;13866;50.748;12.630;2022-12-11T04:49:40;37.20;;;24.07;;
26106;SDS011;13866;50.748;12.630;2022-12-11T04:52:05;40.10;;;23.97;;
26106;SDS011;13866;50.748;12.630;2022-12-11T04:54:31;34.23;;;22.60;;
26106;SDS011;13866;50.748;12.630;2022-12-11T04:56:56;40.60;;;24.63;;
26106;SDS011;13866;50.748;12.630;2022-12-11T04:59:22;31.53;;;22.97;;
26106;SDS011;13866;50.748;12.630;2022-12-11T05:01:48;40.30;;;26.77;;
26106;SDS011;13866;50.748;12.630;2022-12-11T05:04:13;32.77;;;22.50;;
26106;SDS011;13866;50.748;12.630;2022-12-11T05:06:39;33.97;;;23.20;;
26106;SDS011;13866;50.748;12.630;2022-12-11T05:09:04;26.73;;;19.83;;
26106;SDS011;13866;50.748;12.630;2022-12-11T05:11:30;26.80;;;19.40;;
26106;SDS011;13866;50.748;12.630;2022-12-11T05:13:56;38.30;;;20.80;;
26106;SDS011;13866;50.748;12.630;2022-12-11T05:16:21;30.83;;;19.83;;
26106;SDS011;13866;50.748;12.630;2022-12-11T05:18:47;29.20;;;21.30;;
26106;SDS011;13866;50.748;12.630;2022-12-11T05:21:13;28.93;;;18.90;;
26106;SDS011;13866;50.748;12.630;2022-12-11T05:23:39;26.27;;;19.42;;
26106;SDS011;13866;50.748;12.630;2022-12-11T05:26:06;24.67;;;17.95;;
26106;SDS011;13866;50.748;12.630;2022-12-11T05:28:35;26.45;;;19.10;;
26106;SDS011;13866;50.748;12.630;2022-12-11T05:31:03;29.38;;;20.30;;
26106;SDS011;13866;50.748;12.630;2022-12-11T05:33:31;31.50;;;19.85;;
26106;SDS011;13866;50.748;12.630;2022-12-11T05:35:58;31.45;;;20.60;;
26106;SDS011;13866;50.748;12.630;2022-12-11T05:38:24;27.73;;;17.45;;
26106;SDS011;13866;50.748;12.630;2022-12-11T05:40:56;26.70;;;17.30;;
26106;SDS011;13866;50.748;12.630;2022-12-11T05:43:23;23.90;;;17.83;;
26106;SDS011;13866;50.748;12.630;2022-12-11T05:45:50;23.85;;;19.13;;
26106;SDS011;13866;50.748;12.630;2022-12-11T05:48:15;22.37;;;18.07;;
26106;SDS011;13866;50.748;12.630;2022-12-11T05:50:41;26.60;;;18.23;;
26106;SDS011;13866;50.748;12.630;2022-12-11T05:53:06;32.97;;;19.60;;
26106;SDS011;13866;50.748;12.630;2022-12-11T05:55:35;27.87;;;17.63;;
26106;SDS011;13866;50.748;12.630;2022-12-11T05:58:00;27.27;;;18.65;;
26106;SDS011;13866;50.748;12.630;2022-12-11T06:00:26;28.17;;;18.37;;
26106;SDS011;13866;50.748;12.630;2022-12-11T06:02:52;29.87;;;17.27;;
26106;SDS011;13866;50.748;12.630;2022-12-11T06:05:17;24.33;;;18.77;;
26106;SDS011;13866;50.748;12.630;2022-12-11T06:07:43;39.90;;;18.93;;
26106;SDS011;13866;50.748;12.630;2022-12-11T06:10:08;25.90;;;16.63;;
26106;SDS011;13866;50.748;12.630;2022-12-11T06:12:34;23.73;;;17.15;;
26106;SDS011;13866;50.748;12.630;2022-12-11T06:15:00;27.90;;;17.57;;
26106;SDS011;13866;50.748;12.630;2022-12-11T06:17:25;26.97;;;18.20;;
26106;SDS011;13866;50.748;12.630;2022-12-11T06:19:51;24.10;;;16.50;;
26106;SDS011;13866;50.748;12.630;2022-12-11T06:22:16;27.13;;;21.23;;
26106;SDS011;13866;50.748;12.630;2022-12-11T06:24:42;22.90;;;16.93;;
26106;SDS011;13866;50.748;12.630;2022-12-11T06:27:07;24.43;;;18.50;;
26106;SDS011;13866;50.748;12.630;2022-12-11T06:29:33;22.70;;;18.50;;
26106;SDS011;13866;50.748;12.630;2022-12-11T06:31:58;30.37;;;18.50;;
26106;SDS011;13866;50.748;12.630;2022-12-11T06:34:24;19.47;;;16.43;;
26106;SDS011;13866;50.748;12.630;2022-12-11T06:36:49;19.57;;;16.00;;
26106;SDS011;13866;50.748;12.630;2022-12-11T06:39:15;18.40;;;16.50;;
26106;SDS011;13866;50.748;12.630;2022-12-11T06:41:40;18.33;;;16.40;;
26106;SDS011;13866;50.748;12.630;2022-12-11T06:44:06;21.33;;;17.13;;
26106;SDS011;13866;50.748;12.630;2022-12-11T06:46:31;17.67;;;15.87;;
26106;SDS011;13866;50.748;12.630;2022-12-11T06:48:57;22.50;;;18.17;;
26106;SDS011;13866;50.748;12.630;2022-12-11T06:51:22;16.30;;;14.67;;
26106;SDS011;13866;50.748;12.630;2022-12-11T06:53:51;18.03;;;16.23;;
26106;SDS011;13866;50.748;12.630;2022-12-11T06:56:18;23.27;;;19.00;;
26106;SDS011;13866;50.748;12.630;2022-12-11T06:58:45;21.80;;;17.35;;
26106;SDS011;13866;50.748;12.630;2022-12-11T07:01:15;20.03;;;17.77;;
26106;SDS011;13866;50.748;12.630;2022-12-11T07:03:42;22.02;;;19.58;;
26106;SDS011;13866;50.748;12.630;2022-12-11T07:06:08;25.30;;;17.57;;
26106;SDS011;13866;50.748;12.630;2022-12-11T07:08:34;18.17;;;15.97;;
26106;SDS011;13866;50.748;12.630;2022-12-11T07:11:04;33.17;;;17.73;;
26106;SDS011;13866;50.748;12.630;2022-12-11T07:13:31;21.48;;;16.45;;
26106;SDS011;13866;50.748;12.630;2022-12-11T07:15:57;20.33;;;18.15;;
26106;SDS011;13866;50.748;12.630;2022-12-11T07:18:24;19.50;;;17.40;;
26106;SDS011;13866;50.748;12.630;2022-12-11T07:20:50;17.20;;;15.50;;
26106;SDS011;13866;50.748;12.630;2022-12-11T07:23:16;20.37;;;17.60;;
26106;SDS011;13866;50.748;12.630;2022-12-11T07:25:41;22.57;;;18.40;;
26106;SDS011;13866;50.748;12.630;2022-12-11T07:28:07;19.93;;;16.80;;
26106;SDS011;13866;50.748;12.630;2022-12-11T07:30:32;18.90;;;16.20;;
26106;SDS011;13866;50.748;12.630;2022-12-11T07:32:58;23.00;;;17.23;;
26106;SDS011;13866;50.748;12.630;2022-12-11T07:35:23;20.50;;;18.30;;
26106;SDS011;13866;50.748;12.630;2022-12-11T07:37:49;21.03;;;17.80;;
26106;SDS011;13866;50.748;12.630;2022-12-11T07:40:15;19.23;;;17.07;;
26106;SDS011;13866;50.748;12.630;2022-12-11T07:42:40;18.00;;;16.10;;
26106;SDS011;13866;50.748;12.630;2022-12-11T07:45:06;21.67;;;19.30;;
26106;SDS011;13866;50.748;12.630;2022-12-11T07:47:32;23.20;;;18.27;;
26106;SDS011;13866;50.748;12.630;2022-12-11T07:49:57;18.93;;;16.00;;
26106;SDS011;13866;50.748;12.630;2022-12-11T07:52:23;20.13;;;17.10;;
26106;SDS011;13866;50.748;12.630;2022-12-11T07:54:48;18.50;;;16.60;;
26106;SDS011;13866;50.748;12.630;2022-12-11T07:57:14;19.33;;;17.40;;
26106;SDS011;13866;50.748;12.630;2022-12-11T07:59:40;20.40;;;15.90;;
26106;SDS011;13866;50.748;12.630;2022-12-11T08:02:05;18.80;;;16.87;;
26106;SDS011;13866;50.748;12.630;2022-12-11T08:04:33;16.88;;;15.25;;
26106;SDS011;13866;50.748;12.630;2022-12-11T08:06:58;18.73;;;16.70;;
26106;SDS011;13866;50.748;12.630;2022-12-11T08:09:24;25.10;;;18.83;;
26106;SDS011;13866;50.748;12.630;2022-12-11T08:11:49;22.03;;;18.70;;
26106;SDS011;13866;50.748;12.630;2022-12-11T08:14:16;17.88;;;16.08;;
26106;SDS011;13866;50.748;12.630;2022-12-11T08:16:42;18.67;;;16.67;;
26106;SDS011;13866;50.748;12.630;2022-12-11T08:19:08;19.33;;;16.87;;
26106;SDS011;13866;50.748;12.630;2022-12-11T08:21:37;17.58;;;15.88;;
26106;SDS011;13866;50.748;12.630;2022-12-11T08:24:04;17.10;;;15.48;;
26106;SDS011;13866;50.748;12.630;2022-12-11T08:26:29;17.00;;;14.90;;
26106;SDS011;13866;50.748;12.630;2022-12-11T08:28:56;18.20;;;16.40;;
26106;SDS011;13866;50.748;12.630;2022-12-11T08:31:22;18.75;;;16.90;;
26106;SDS011;13866;50.748;12.630;2022-12-11T08:33:48;21.90;;;18.58;;
26106;SDS011;13866;50.748;12.630;2022-12-11T08:36:15;20.00;;;17.77;;
26106;SDS011;13866;50.748;12.630;2022-12-11T08:38:42;18.63;;;16.88;;
26106;SDS011;13866;50.748;12.630;2022-12-11T08:41:13;18.87;;;16.67;;
26106;SDS011;13866;50.748;12.630;2022-12-11T08:43:40;28.30;;;19.30;;
26106;SDS011;13866;50.748;12.630;2022-12-11T08:46:06;24.80;;;19.60;;
26106;SDS011;13866;50.748;12.630;2022-12-11T08:48:33;20.08;;;17.73;;
26106;SDS011;13866;50.748;12.630;2022-12-11T08:51:00;19.20;;;17.40;;
26106;SDS011;13866;50.748;12.630;2022-12-11T08:53:27;19.48;;;16.98;;
26106;SDS011;13866;50.748;12.630;2022-12-11T08:55:53;20.35;;;18.25;;
26106;SDS011;13866;50.748;12.630;2022-12-11T08:58:24;19.55;;;17.55;;
26106;SDS011;13866;50.748;12.630;2022-12-11T09:00:49;19.60;;;17.30;;
26106;SDS011;13866;50.748;12.630;2022-12-11T09:03:15;20.97;;;18.80;;
26106;SDS011;13866;50.748;12.630;2022-12-11T09:05:40;22.83;;;19.30;;
26106;SDS011;13866;50.748;12.630;2022-12-11T09:08:06;20.27;;;17.93;;
26106;SDS011;13866;50.748;12.630;2022-12-11T09:10:31;19.47;;;17.47;;
26106;SDS011;13866;50.748;12.630;2022-12-11T09:12:57;22.67;;;17.80;;
26106;SDS011;13866;50.748;12.630;2022-12-11T09:15:22;17.50;;;15.83;;
26106;SDS011;13866;50.748;12.630;2022-12-11T09:17:48;19.77;;;17.70;;
26106;SDS011;13866;50.748;12.630;2022-12-11T09:20:13;20.33;;;16.80;;
26106;SDS011;13866;50.748;12.630;2022-12-11T09:22:39;19.07;;;17.17;;
26106;SDS011;13866;50.748;12.630;2022-12-11T09:25:06;18.33;;;15.75;;
26106;SDS011;13866;50.748;12.630;2022-12-11T09:27:33;19.13;;;17.00;;
26106;SDS011;13866;50.748;12.630;2022-12-11T09:29:59;21.38;;;17.75;;
26106;SDS011;13866;50.748;12.630;2022-12-11T09:32:24;17.37;;;15.60;;
26106;SDS011;13866;50.748;12.630;2022-12-11T09:34:50;19.87;;;17.77;;
26106;SDS011;13866;50.748;12.630;2022-12-11T09:37:17;22.13;;;18.08;;
26106;SDS011;13866;50.748;12.630;2022-12-11T09:39:43;25.03;;;19.60;;
26106;SDS011;13866;50.748;12.630;2022-12-11T09:42:13;20.97;;;17.77;;
26106;SDS011;13866;50.748;12.630;2022-12-11T09:44:59;21.13;;;16.63;;
26106;SDS011;13866;50.748;12.630;2022-12-11T09:47:34;17.85;;;15.90;;
26106;SDS011;13866;50.748;12.630;2022-12-11T09:50:10;20.67;;;16.08;;
26106;SDS011;13866;50.748;12.630;2022-12-11T09:55:55;15.07;;;13.70;;
26106;SDS011;13866;50.748;12.630;2022-12-11T09:58:38;21.50;;;16.50;;
26106;SDS011;13866;50.748;12.630;2022-12-11T10:01:14;20.60;;;17.48;;
26106;SDS011;13866;50.748;12.630;2022-12-11T10:06:41;18.58;;;16.08;;
26106;SDS011;13866;50.748;12.630;2022-12-11T10:09:16;20.63;;;16.17;;
26106;SDS011;13866;50.748;12.630;2022-12-11T10:17:18;16.40;;;13.90;;
26106;SDS011;13866;50.748;12.630;2022-12-11T10:19:51;12.75;;;11.73;;
26106;SDS011;13866;50.748;12.630;2022-12-11T10:22:20;14.43;;;13.13;;
26106;SDS011;13866;50.748;12.630;2022-12-11T10:24:55;12.82;;;11.65;;
26106;SDS011;13866;50.748;12.630;2022-12-11T10:27:30;11.15;;;10.07;;
26106;SDS011;13866;50.748;12.630;2022-12-11T10:35:46;12.60;;;11.52;;
26106;SDS011;13866;50.748;12.630;2022-12-11T10:38:15;13.82;;;12.45;;
26106;SDS011;13866;50.748;12.630;2022-12-11T10:40:54;12.98;;;11.60;;
26106;SDS011;13866;50.748;12.630;2022-12-11T10:43:35;10.75;;;9.85;;
26106;SDS011;13866;50.748;12.630;2022-12-11T10:46:04;11.30;;;10.38;;
26106;SDS011;13866;50.748;12.630;2022-12-11T10:48:31;11.30;;;10.43;;
26106;SDS011;13866;50.748;12.630;2022-12-11T10:50:58;11.90;;;10.93;;
26106;SDS011;13866;50.748;12.630;2022-12-11T10:53:29;10.43;;;9.63;;
26106;SDS011;13866;50.748;12.630;2022-12-11T10:55:57;13.95;;;10.95;;
26106;SDS011;13866;50.748;12.630;2022-12-11T10:58:27;13.65;;;12.50;;
26106;SDS011;13866;50.748;12.630;2022-12-11T11:01:02;11.43;;;10.52;;
26106;SDS011;13866;50.748;12.630;2022-12-11T11:06:39;12.00;;;11.00;;
26106;SDS011;13866;50.748;12.630;2022-12-11T11:09:21;12.90;;;11.90;;
26106;SDS011;13866;50.748;12.630;2022-12-11T11:11:55;13.75;;;11.95;;
26106;SDS011;13866;50.748;12.630;2022-12-11T11:14:20;12.67;;;11.67;;
26106;SDS011;13866;50.748;12.630;2022-12-11T11:16:51;12.45;;;11.43;;
26106;SDS011;13866;50.748;12.630;2022-12-11T11:19:24;14.40;;;13.00;;
26106;SDS011;13866;50.748;12.630;2022-12-11T11:21:57;14.18;;;13.00;;
26106;SDS011;13866;50.748;12.630;2022-12-11T11:24:39;12.18;;;11.07;;
26106;SDS011;13866;50.748;12.630;2022-12-11T11:30:00;15.73;;;13.98;;
26106;SDS011;13866;50.748;12.630;2022-12-11T11:32:31;14.93;;;13.65;;
26106;SDS011;13866;50.748;12.630;2022-12-11T11:35:31;17.42;;;14.95;;
26106;SDS011;13866;50.748;12.630;2022-12-11T11:41:32;17.55;;;15.65;;
26106;SDS011;13866;50.748;12.630;2022-12-11T11:43:48;16.58;;;15.07;;
26106;SDS011;13866;50.748;12.630;2022-12-11T11:46:31;15.98;;;14.23;;
26106;SDS011;13866;50.748;12.630;2022-12-11T11:49:18;15.40;;;13.70;;
26106;SDS011;13866;50.748;12.630;2022-12-11T11:52:02;16.45;;;14.75;;
26106;SDS011;13866;50.748;12.630;2022-12-11T11:57:04;21.55;;;17.38;;
26106;SDS011;13866;50.748;12.630;2022-12-11T11:59:46;16.35;;;14.50;;
26106;SDS011;13866;50.748;12.630;2022-12-11T12:02:19;14.55;;;13.35;;
26106;SDS011;13866;50.748;12.630;2022-12-11T12:04:45;14.03;;;12.97;;
26106;SDS011;13866;50.748;12.630;2022-12-11T12:07:19;16.00;;;14.38;;
26106;SDS011;13866;50.748;12.630;2022-12-11T12:09:52;18.48;;;16.17;;
26106;SDS011;13866;50.748;12.630;2022-12-11T12:12:49;16.75;;;15.20;;
26106;SDS011;13866;50.748;12.630;2022-12-11T12:15:37;15.52;;;13.93;;
26106;SDS011;13866;50.748;12.630;2022-12-11T12:18:13;16.67;;;15.00;;
26106;SDS011;13866;50.748;12.630;2022-12-11T12:21:11;17.60;;;15.80;;
26106;SDS011;13866;50.748;12.630;2022-12-11T12:24:00;18.40;;;16.45;;
26106;SDS011;13866;50.748;12.630;2022-12-11T12:26:50;17.10;;;15.40;;
26106;SDS011;13866;50.748;12.630;2022-12-11T12:32:20;19.73;;;17.45;;
26106;SDS011;13866;50.748;12.630;2022-12-11T12:35:11;17.85;;;15.80;;
26106;SDS011;13866;50.748;12.630;2022-12-11T12:47:39;17.77;;;15.90;;
26106;SDS011;13866;50.748;12.630;2022-12-11T12:50:10;19.85;;;17.08;;
26106;SDS011;13866;50.748;12.630;2022-12-11T12:52:45;18.33;;;16.35;;
26106;SDS011;13866;50.748;12.630;2022-12-11T12:55:15;16.90;;;15.20;;
26106;SDS011;13866;50.748;12.630;2022-12-11T12:57:56;19.13;;;17.27;;
26106;SDS011;13866;50.748;12.630;2022-12-11T13:00:42;22.45;;;17.20;;
26106;SDS011;13866;50.748;12.630;2022-12-11T13:03:18;20.98;;;15.98;;
26106;SDS011;13866;50.748;12.630;2022-12-11T13:05:58;18.70;;;16.65;;
26106;SDS011;13866;50.748;12.630;2022-12-11T13:08:27;21.10;;;16.30;;
26106;SDS011;13866;50.748;12.630;2022-12-11T13:11:15;16.20;;;14.68;;
26106;SDS011;13866;50.748;12.630;2022-12-11T13:13:46;15.50;;;14.02;;
26106;SDS011;13866;50.748;12.630;2022-12-11T13:16:25;16.40;;;14.90;;
26106;SDS011;13866;50.748;12.630;2022-12-11T13:18:58;14.93;;;13.52;;
26106;SDS011;13866;50.748;12.630;2022-12-11T13:21:25;16.73;;;14.97;;
26106;SDS011;13866;50.748;12.630;2022-12-11T13:26:45;17.95;;;16.05;;
26106;SDS011;13866;50.748;12.630;2022-12-11T13:34:38;19.00;;;14.23;;
26106;SDS011;13866;50.748;12.630;2022-12-11T13:37:15;18.20;;;15.93;;
26106;SDS011;13866;50.748;12.630;2022-12-11T13:39:51;19.13;;;15.20;;
26106;SDS011;13866;50.748;12.630;2022-12-11T13:42:27;18.93;;;16.10;;
26106;SDS011;13866;50.748;12.630;2022-12-11T13:45:03;18.40;;;16.50;;
26106;SDS011;13866;50.748;12.630;2022-12-11T13:47:30;19.10;;;16.10;;
26106;SDS011;13866;50.748;12.630;2022-12-11T13:50:08;17.17;;;15.60;;
26106;SDS011;13866;50.748;12.630;2022-12-11T13:52:39;14.90;;;13.38;;
26106;SDS011;13866;50.748;12.630;2022-12-11T13:55:15;17.90;;;15.87;;
26106;SDS011;13866;50.748;12.630;2022-12-11T13:57:45;17.48;;;15.68;;
26106;SDS011;13866;50.748;12.630;2022-12-11T14:00:18;16.63;;;15.03;;
26106;SDS011;13866;50.748;12.630;2022-12-11T14:02:46;16.73;;;15.10;;
26106;SDS011;13866;50.748;12.630;2022-12-11T14:05:12;17.33;;;15.15;;
26106;SDS011;13866;50.748;12.630;2022-12-11T14:07:46;19.58;;;17.50;;
26106;SDS011;13866;50.748;12.630;2022-12-11T14:15:23;18.15;;;15.90;;
26106;SDS011;13866;50.748;12.630;2022-12-11T14:17:50;25.08;;;17.00;;
26106;SDS011;13866;50.748;12.630;2022-12-11T14:20:20;19.55;;;16.65;;
26106;SDS011;13866;50.748;12.630;2022-12-11T14:22:47;19.25;;;15.70;;
26106;SDS011;13866;50.748;12.630;2022-12-11T14:25:18;19.40;;;17.33;;
26106;SDS011;13866;50.748;12.630;2022-12-11T14:27:50;21.27;;;18.88;;
26106;SDS011;13866;50.748;12.630;2022-12-11T14:30:25;17.02;;;15.43;;
26106;SDS011;13866;50.748;12.630;2022-12-11T14:32:56;19.02;;;17.13;;
26106;SDS011;13866;50.748;12.630;2022-12-11T14:35:26;22.13;;;18.92;;
26106;SDS011;13866;50.748;12.630;2022-12-11T14:37:55;21.95;;;17.67;;
26106;SDS011;13866;50.748;12.630;2022-12-11T14:40:26;21.30;;;16.23;;
26106;SDS011;13866;50.748;12.630;2022-12-11T14:42:56;19.80;;;17.17;;
26106;SDS011;13866;50.748;12.630;2022-12-11T14:45:32;16.60;;;15.00;;
26106;SDS011;13866;50.748;12.630;2022-12-11T14:48:00;27.63;;;18.10;;
26106;SDS011;13866;50.748;12.630;2022-12-11T14:50:38;20.85;;;18.45;;
26106;SDS011;13866;50.748;12.630;2022-12-11T14:53:16;17.45;;;15.80;;
26106;SDS011;13866;50.748;12.630;2022-12-11T14:55:45;22.70;;;18.10;;
26106;SDS011;13866;50.748;12.630;2022-12-11T14:58:18;21.00;;;18.13;;
26106;SDS011;13866;50.748;12.630;2022-12-11T15:00:57;21.77;;;18.20;;
26106;SDS011;13866;50.748;12.630;2022-12-11T15:03:29;23.30;;;19.15;;
26106;SDS011;13866;50.748;12.630;2022-12-11T15:05:59;20.98;;;17.50;;
26106;SDS011;13866;50.748;12.630;2022-12-11T15:08:28;22.20;;;18.00;;
26106;SDS011;13866;50.748;12.630;2022-12-11T15:11:08;26.10;;;19.63;;
26106;SDS011;13866;50.748;12.630;2022-12-11T15:13:36;24.83;;;18.35;;
26106;SDS011;13866;50.748;12.630;2022-12-11T15:16:12;27.58;;;20.48;;
26106;SDS011;13866;50.748;12.630;2022-12-11T15:18:39;28.85;;;20.55;;
26106;SDS011;13866;50.748;12.630;2022-12-11T15:21:09;27.15;;;19.52;;
26106;SDS011;13866;50.748;12.630;2022-12-11T15:23:45;22.98;;;19.25;;
26106;SDS011;13866;50.748;12.630;2022-12-11T15:26:19;23.55;;;18.67;;
26106;SDS011;13866;50.748;12.630;2022-12-11T15:28:45;26.17;;;20.00;;
26106;SDS011;13866;50.748;12.630;2022-12-11T15:31:24;22.27;;;19.13;;
26106;SDS011;13866;50.748;12.630;2022-12-11T15:33:52;22.17;;;19.50;;
26106;SDS011;13866;50.748;12.630;2022-12-11T15:36:38;26.60;;;19.30;;
26106;SDS011;13866;50.748;12.630;2022-12-11T15:39:03;27.58;;;20.60;;